Terminal Aerodrome Forecast
Issued by NWS Mt. Holly, NJ

Home | Current Version | Previous Version | Text Only | Print | Product List | Glossary On
Versions: 1 2 3 4 5 6 7 8 9 10 11 12 13 14
000
FTUS41 KPHI 292049 AAB
TAFILG
TAF AMD
KILG 292049Z 2921/3018 16010KT P6SM VCSH SCT050 BKN200
      TEMPO 2921/2924 2SM SHRA BKN035
     FM300000 17005KT 5SM -SHRA BR BKN020 OVC035
     FM300600 19004KT 3SM -SHRA BR OVC009
     FM301200 VRB03KT 2SM SHRA BR OVC007=

USA.gov is the U.S. government's official web portal to all federal, state and local government web resources and services.